Time;durP1;ratioP1;P1;durP2;ratioP2;P2;SDS_P1;SDS_P2;PMS_P1;PMS_P2;Temp;Humidity;BMP_temperature;BMP_pressure;BME280_temperature;BME280_humidity;BME280_pressure;Samples;Min_cycle;Max_cycle;Signal;HPM_P1;HPM_P2
2022/02/02 00:01:43;;;;;;;5.90;3.90;;;4.50;99.90;;;3.17;95.59;97306.09;5047308;28;20454;-71
2022/02/02 00:04:13;;;;;;;7.63;4.50;;;4.60;99.90;;;3.21;95.68;97309.22;5049235;28;20955;-70
2022/02/02 00:06:46;;;;;;;7.03;3.27;;;4.60;99.90;;;3.18;95.52;97305.09;5072776;28;20516;-70
2022/02/02 00:09:17;;;;;;;4.30;3.20;;;4.60;99.90;;;3.32;94.47;97306.09;5048527;28;20512;-71
2022/02/02 00:17:34;;;;;;;5.50;2.30;;;4.80;98.70;;;3.46;94.66;97303.59;5050625;28;20487;-71
2022/02/02 00:20:13;;;;;;;6.93;2.60;;;4.80;99.20;;;3.45;93.82;97320.63;5055927;28;20469;-71
2022/02/02 00:22:41;;;;;;;4.50;3.03;;;4.90;98.50;;;3.23;94.21;97292.03;5055312;28;20476;-72
2022/02/02 00:25:15;;;;;;;3.43;2.20;;;4.80;98.90;;;3.34;94.85;97309.41;5056126;28;20445;-72
2022/02/02 00:27:45;;;;;;;4.07;3.53;;;4.80;99.90;;;3.43;94.81;97322.66;5056799;28;20932;-71
2022/02/02 00:30:16;;;;;;;8.13;3.50;;;4.80;99.90;;;3.45;94.90;97305.41;5055243;28;20462;-71
2022/02/02 00:32:58;;;;;;;8.47;3.07;;;4.90;99.70;;;3.47;94.70;97281.22;5051600;28;20468;-71
2022/02/02 00:35:30;;;;;;;6.40;4.40;;;4.90;99.70;;;3.50;95.17;97302.19;5037122;28;20872;-71
2022/02/02 00:37:57;;;;;;;9.73;5.00;;;4.90;99.90;;;3.63;94.75;97307.69;5036268;28;20849;-72
2022/02/02 00:40:25;;;;;;;8.43;3.77;;;5.00;99.70;;;3.71;94.28;97303.22;5035453;28;20863;-71
2022/02/02 00:42:52;;;;;;;6.50;3.70;;;5.10;98.50;;;3.70;93.83;97305.09;5036183;28;20542;-71
2022/02/02 00:45:20;;;;;;;6.23;3.43;;;5.10;98.70;;;3.74;93.81;97311.72;5034585;28;20885;-71
2022/02/02 00:47:51;;;;;;;4.73;2.73;;;5.20;98.10;;;3.82;93.15;97316.09;5036590;28;20526;-72
2022/02/02 00:50:18;;;;;;;6.27;3.10;;;5.20;97.70;;;3.45;94.03;97256.53;5035998;28;20490;-72
2022/02/02 00:52:50;;;;;;;3.37;3.03;;;5.20;98.50;;;3.74;93.61;97302.88;5034473;28;20435;-73
2022/02/02 00:55:18;;;;;;;9.33;3.70;;;5.10;98.60;;;3.72;93.33;97305.72;5034853;28;20988;-72
2022/02/02 00:57:46;;;;;;;8.80;3.37;;;5.20;97.40;;;3.65;93.18;97311.00;5036262;28;20502;-72
2022/02/02 01:00:15;;;;;;;6.20;3.10;;;5.10;97.60;;;3.73;93.23;97341.31;5035961;28;20438;-73
2022/02/02 01:02:42;;;;;;;6.40;3.03;;;5.10;97.50;;;3.86;92.06;97337.94;5034691;28;20447;-73
2022/02/02 01:05:09;;;;;;;6.50;3.30;;;5.20;95.70;;;3.86;91.39;97335.28;5050915;28;20507;-73
2022/02/02 01:07:57;;;;;;;11.10;3.30;;;5.30;94.80;;;3.88;92.13;97330.56;5035798;28;20448;-73
2022/02/02 01:10:30;;;;;;;6.30;2.83;;;5.30;94.70;;;3.94;91.26;97349.34;5035705;28;20470;-73
2022/02/02 01:13:18;;;;;;;8.57;3.67;;;5.30;94.70;;;3.93;91.48;97365.56;5035863;28;20502;-73
2022/02/02 01:16:34;;;;;;;4.20;2.93;;;5.30;94.50;;;3.95;92.91;97359.00;5052253;28;20435;-73
2022/02/02 01:18:59;;;;;;;7.03;2.87;;;5.40;95.70;;;3.83;93.56;97355.19;5033868;28;20958;-72
2022/02/02 01:21:31;;;;;;;5.10;2.67;;;5.30;98.90;;;3.63;95.18;97350.44;5035361;28;20443;-72
2022/02/02 01:29:30;;;;;;;4.53;2.83;;;5.10;99.90;;;3.63;95.44;97369.13;5035269;28;20657;-72
2022/02/02 01:31:57;;;;;;;5.20;2.37;;;5.10;99.90;;;3.63;94.80;97357.63;5035695;28;20466;-72
2022/02/02 01:34:25;;;;;;;5.33;3.40;;;5.10;99.90;;;3.69;94.49;97364.91;5033656;28;20469;-73
2022/02/02 01:36:52;;;;;;;6.97;3.40;;;5.10;99.60;;;3.77;93.91;97361.28;5035107;28;20439;-72
2022/02/02 01:39:23;;;;;;;6.40;3.63;;;5.20;97.90;;;3.66;95.20;97341.22;5035208;28;20478;-72
2022/02/02 01:41:51;;;;;;;7.90;3.77;;;5.20;99.90;;;3.70;95.13;97355.88;5033874;28;20442;-73
2022/02/02 01:44:25;;;;;;;7.70;3.40;;;5.10;99.90;;;3.78;94.92;97357.59;5033621;28;20980;-72
2022/02/02 01:46:54;;;;;;;5.57;2.97;;;5.20;99.90;;;3.76;92.65;97348.94;5035149;28;20470;-72
2022/02/02 01:54:59;;;;;;;7.33;2.80;;;5.20;94.50;;;3.75;91.62;97352.63;5017078;28;20441;-73
2022/02/02 02:00:10;;;;;;;5.13;3.20;;;5.20;93.70;;;3.77;89.74;97361.28;5033840;28;20442;-71
2022/02/02 02:02:38;;;;;;;7.67;3.10;;;5.20;92.60;;;3.74;89.53;97350.97;5034816;28;20435;-71
2022/02/02 02:05:09;;;;;;;7.43;2.60;;;5.20;91.60;;;3.79;88.27;97349.41;5042788;28;20467;-70
2022/02/02 02:07:36;;;;;;;7.37;2.73;;;5.30;90.60;;;3.76;87.33;97354.28;5065498;28;20455;-71
2022/02/02 02:10:04;;;;;;;9.90;2.87;;;5.20;90.10;;;3.86;86.67;97356.66;5035903;28;20439;-70
2022/02/02 02:12:40;;;;;;;7.83;2.50;;;5.30;88.70;;;3.82;86.52;97365.06;5034669;28;20488;-72
2022/02/02 02:15:10;;;;;;;5.80;2.40;;;5.30;88.90;;;3.79;85.99;97368.09;5034570;28;20894;-72
2022/02/02 02:17:39;;;;;;;5.57;2.40;;;5.20;88.70;;;3.76;86.04;97375.66;5034817;28;20435;-72
2022/02/02 02:20:08;;;;;;;10.60;3.20;;;5.20;88.30;;;3.76;86.00;97378.34;5034336;28;20442;-72
2022/02/02 02:22:39;;;;;;;14.03;2.90;;;5.20;88.60;;;3.73;86.00;97376.03;5034652;28;20445;-72
2022/02/02 02:25:08;;;;;;;6.10;2.57;;;5.20;88.80;;;3.82;85.62;97394.44;5051020;28;20485;-72
2022/02/02 02:27:35;;;;;;;7.03;2.57;;;5.30;88.40;;;3.89;86.36;97415.91;5034146;28;20435;-72
2022/02/02 02:30:08;;;;;;;7.87;2.33;;;5.30;89.40;;;3.77;86.97;97388.81;5049550;28;20467;-72
2022/02/02 02:33:05;;;;;;;5.97;2.60;;;5.30;89.00;;;3.73;86.42;97398.22;5035285;28;20412;-72
2022/02/02 02:35:54;;;;;;;11.00;2.73;;;5.30;89.60;;;3.83;86.81;97409.47;5049740;28;20526;-73
2022/02/02 02:57:45;;;;;;;6.40;2.33;;;5.20;89.00;;;3.71;86.08;97378.88;5049582;28;20491;-71
2022/02/02 03:00:29;;;;;;;8.73;2.70;;;5.20;89.50;;;3.88;86.02;97384.84;5033746;28;20917;-71
2022/02/02 03:30:49;;;;;;;9.20;2.97;;;5.20;89.10;;;3.70;87.59;97395.94;5041424;28;20478;-72
2022/02/02 03:53:07;;;;;;;11.43;3.57;;;4.90;94.90;;;3.42;91.50;97377.09;5031390;28;20503;-72
2022/02/02 03:55:38;;;;;;;7.87;2.90;;;4.90;94.70;;;3.40;92.39;97377.28;5048059;28;20455;-72
2022/02/02 03:58:23;;;;;;;13.40;2.93;;;4.80;95.70;;;3.45;91.60;97382.06;5033160;28;20435;-72
2022/02/02 04:03:52;;;;;;;12.10;2.60;;;4.90;94.50;;;3.52;90.58;97374.94;5048640;28;20435;-72
2022/02/02 04:06:22;;;;;;;9.67;3.07;;;4.90;94.40;;;3.40;90.99;97362.06;5032170;28;20438;-72
2022/02/02 04:08:49;;;;;;;5.83;2.60;;;4.90;94.40;;;3.49;90.80;97386.00;5033570;28;20446;-73
2022/02/02 04:11:27;;;;;;;7.50;2.70;;;4.90;94.00;;;3.49;90.56;97378.84;5033324;28;20462;-72
2022/02/02 04:17:16;;;;;;;5.63;2.70;;;5.00;92.60;;;3.57;89.83;97377.91;5035454;28;20506;-74
2022/02/02 04:39:17;;;;;;;11.40;3.73;;;5.70;85.80;;;4.24;84.89;97440.16;5026948;28;20451;-72
2022/02/02 04:53:30;;;;;;;12.63;3.60;;;5.60;85.70;;;4.08;83.35;97421.66;5035704;28;20473;-71
2022/02/02 04:55:57;;;;;;;15.87;4.80;;;5.50;84.80;;;4.14;83.26;97446.81;5051181;28;20434;-70
2022/02/02 04:58:34;;;;;;;19.20;5.13;;;5.60;84.60;;;4.05;83.01;97440.78;5057832;28;20443;-73
2022/02/02 05:04:06;;;;;;;12.30;3.83;;;5.50;84.70;;;3.95;83.03;97439.22;5036177;28;20453;-73
2022/02/02 05:06:40;;;;;;;14.07;4.20;;;5.50;84.90;;;4.06;83.36;97445.91;5035813;28;20466;-73
2022/02/02 05:09:20;;;;;;;13.37;3.70;;;5.50;84.60;;;4.08;82.95;97448.41;5051508;28;20470;-73
2022/02/02 05:17:26;;;;;;;14.07;4.30;;;5.50;84.60;;;4.19;81.87;97460.44;5026594;28;20461;-73
2022/02/02 05:20:14;;;;;;;14.53;3.73;;;5.60;83.90;;;4.22;82.35;97458.25;5035598;28;20445;-74
2022/02/02 05:43:08;;;;;;;15.77;3.97;;;5.70;82.60;;;4.34;80.10;97463.09;5086467;28;20469;-76
2022/02/02 05:53:38;;;;;;;15.53;3.93;;;5.70;81.00;;;4.39;79.10;97463.34;5051040;28;20442;-76
2022/02/02 05:56:07;;;;;;;12.00;3.93;;;5.80;80.90;;;4.31;79.41;97461.63;5048904;28;20493;-74
2022/02/02 05:58:37;;;;;;;10.73;3.60;;;5.70;81.00;;;4.35;79.26;97470.91;5050438;28;20466;-75
2022/02/02 06:01:10;;;;;;;14.03;3.20;;;5.80;80.80;;;4.34;77.95;97479.16;5049110;28;20469;-74
2022/02/02 06:03:52;;;;;;;10.70;3.10;;;5.80;80.20;;;4.37;78.74;97474.22;5049925;28;20529;-69
2022/02/02 06:06:23;;;;;;;16.90;4.47;;;5.80;80.50;;;4.37;78.89;97474.22;5048916;28;20505;-70
2022/02/02 06:08:52;;;;;;;9.40;3.33;;;5.80;80.50;;;4.15;78.91;97453.84;5048644;28;20985;-70
2022/02/02 06:11:21;;;;;;;9.20;2.87;;;5.80;80.80;;;4.38;79.53;97478.56;5050089;28;20442;-71
2022/02/02 06:13:52;;;;;;;10.83;3.33;;;5.80;81.00;;;4.34;79.10;97489.84;5049706;28;20530;-72
2022/02/02 06:16:23;;;;;;;15.03;4.23;;;5.80;81.20;;;4.25;79.66;97497.97;5050080;28;20446;-72
2022/02/02 06:18:55;;;;;;;15.67;3.53;;;5.70;81.00;;;4.34;80.26;97511.25;5048514;28;20505;-71
2022/02/02 06:21:27;;;;;;;12.80;3.80;;;5.70;81.50;;;4.29;80.84;97525.19;5049171;28;20443;-72
2022/02/02 06:24:06;;;;;;;14.50;3.93;;;5.70;81.80;;;4.34;81.38;97538.00;5049509;28;20447;-76
2022/02/02 06:26:35;;;;;;;13.73;4.03;;;5.70;82.60;;;4.13;83.64;97547.59;5049747;28;20476;-76
2022/02/02 06:29:06;;;;;;;12.83;2.97;;;5.60;84.10;;;3.69;86.58;97527.88;5049832;28;20442;-78
2022/02/02 06:31:37;;;;;;;13.73;3.80;;;5.30;90.00;;;3.37;90.20;97532.53;5048907;28;20521;-77
2022/02/02 06:34:07;;;;;;;13.17;3.60;;;5.00;92.80;;;3.41;89.07;97555.19;5050297;28;20422;-79
2022/02/02 06:36:38;;;;;;;15.10;4.13;;;4.90;91.70;;;3.20;89.03;97513.16;5050733;28;20484;-81
2022/02/02 06:39:08;;;;;;;13.83;3.90;;;4.90;91.90;;;3.31;88.81;97551.94;5039512;28;20435;-78
2022/02/02 06:41:36;;;;;;;22.23;4.27;;;4.80;92.00;;;3.31;88.84;97560.78;5035879;28;20431;-79
2022/02/02 06:44:05;;;;;;;14.47;3.87;;;4.80;91.70;;;3.33;87.79;97545.41;5036215;28;20832;-78
2022/02/02 06:46:35;;;;;;;16.00;3.80;;;4.80;90.50;;;3.40;86.43;97553.53;5046087;28;20465;-79
2022/02/02 06:49:04;;;;;;;12.97;3.73;;;4.80;88.90;;;3.31;86.40;97557.28;5057285;28;20435;-77
2022/02/02 06:51:35;;;;;;;14.03;4.13;;;4.80;88.70;;;3.35;85.93;97554.06;5050898;28;20454;-78
2022/02/02 06:54:09;;;;;;;23.30;7.53;;;4.80;88.50;;;3.51;86.05;97570.97;5038858;28;20427;-79
2022/02/02 06:56:46;;;;;;;11.00;3.73;;;4.90;89.20;;;3.54;84.03;97566.09;5038954;28;20531;-78
2022/02/02 06:59:37;;;;;;;14.50;3.37;;;5.00;86.40;;;3.23;83.42;97512.78;5036738;28;20911;-77
2022/02/02 07:02:30;;;;;;;16.37;4.57;;;5.10;85.20;;;3.68;83.64;97559.09;5035313;28;20526;-78
2022/02/02 07:08:23;;;;;;;6.40;2.83;;;5.20;83.90;;;3.72;81.97;97588.97;5035703;28;20470;-76
2022/02/02 07:13:49;;;;;;;14.63;4.43;;;5.20;82.90;;;3.20;81.66;97500.66;5047171;28;20957;-76
2022/02/02 07:16:28;;;;;;;17.03;4.87;;;5.10;82.60;;;3.67;80.83;97586.84;5036110;28;20537;-77
2022/02/02 07:19:08;;;;;;;16.00;3.93;;;5.10;82.10;;;3.67;81.06;97589.50;5040513;28;20431;-74
2022/02/02 07:22:02;;;;;;;14.43;2.90;;;5.10;82.00;;;3.65;80.26;97575.50;5067956;28;20857;-75
2022/02/02 07:24:52;;;;;;;11.80;3.03;;;5.10;81.80;;;3.73;80.98;97584.47;5059356;28;20527;-76
2022/02/02 07:27:39;;;;;;;14.83;3.60;;;5.10;82.10;;;3.83;81.13;97587.69;5036333;28;20926;-75
2022/02/02 07:30:18;;;;;;;7.90;3.50;;;5.30;82.20;;;3.94;80.58;97589.91;5036134;28;20463;-74
2022/02/02 07:32:55;;;;;;;11.07;2.80;;;5.30;82.10;;;3.94;81.11;97595.25;5036013;28;20466;-74
2022/02/02 07:35:34;;;;;;;10.37;3.80;;;5.40;82.30;;;3.91;81.59;97590.28;5035425;28;20443;-76
2022/02/02 07:38:09;;;;;;;14.97;4.03;;;5.40;82.60;;;4.07;81.65;97583.91;5050551;28;20927;-75
2022/02/02 07:40:39;;;;;;;16.30;3.70;;;5.40;83.00;;;4.03;82.34;97584.50;5035927;28;20449;-78
2022/02/02 07:43:05;;;;;;;14.37;3.80;;;5.40;83.30;;;4.01;81.71;97589.16;5036032;28;20785;-77
2022/02/02 07:45:34;;;;;;;14.33;3.40;;;5.50;83.10;;;3.99;82.48;97599.22;5038974;28;20517;-79
2022/02/02 07:48:04;;;;;;;11.70;3.80;;;5.40;83.50;;;3.93;82.80;97601.63;5067965;28;20462;-77
2022/02/02 07:50:35;;;;;;;19.63;4.38;;;5.40;84.20;;;3.84;84.90;97613.41;5034583;28;20445;-77
2022/02/02 07:53:08;;;;;;;9.80;3.53;;;5.30;86.60;;;3.82;85.34;97616.28;5036158;28;20189;-77
2022/02/02 07:55:38;;;;;;;11.50;4.03;;;5.30;88.40;;;3.68;85.98;97598.38;5067865;28;20930;-78
2022/02/02 07:58:06;;;;;;;18.03;4.20;;;5.20;88.80;;;3.79;86.10;97607.78;5034958;28;20446;-78
2022/02/02 08:00:35;;;;;;;16.37;3.53;;;5.30;89.70;;;3.89;86.51;97619.03;5035022;28;20435;-77
2022/02/02 08:03:07;;;;;;;9.60;3.47;;;5.30;89.30;;;3.95;85.98;97615.63;5035553;28;20447;-77
2022/02/02 08:05:40;;;;;;;18.83;4.53;;;5.40;89.00;;;3.93;85.77;97617.66;5035078;28;20568;-77
2022/02/02 08:08:24;;;;;;;13.93;4.53;;;5.40;89.10;;;4.03;85.89;97605.88;5034172;28;20549;-78
2022/02/02 08:10:51;;;;;;;17.17;6.03;;;5.50;89.00;;;4.08;85.06;97609.63;5050428;28;20439;-80
2022/02/02 08:13:22;;;;;;;14.77;4.50;;;5.50;88.20;;;4.16;84.43;97611.38;5050338;28;20438;-80
2022/02/02 08:15:56;;;;;;;14.00;4.80;;;5.60;86.80;;;4.24;84.05;97632.72;5035018;28;20443;-78
2022/02/02 08:18:23;;;;;;;12.47;4.00;;;5.70;86.20;;;4.22;83.44;97624.03;5035652;28;20470;-79
2022/02/02 08:20:50;;;;;;;12.40;4.60;;;5.70;85.90;;;4.32;83.31;97636.28;5035354;28;20442;-79
2022/02/02 08:23:19;;;;;;;18.80;6.00;;;5.70;85.20;;;4.33;83.22;97654.03;5049789;28;20442;-76
2022/02/02 08:25:46;;;;;;;15.03;3.87;;;5.80;84.80;;;4.37;82.44;97663.34;5050139;28;20553;-77
2022/02/02 08:28:13;;;;;;;12.57;3.97;;;5.80;84.20;;;4.38;82.31;97671.16;5049938;28;20469;-77
2022/02/02 08:30:39;;;;;;;17.47;5.23;;;5.80;84.00;;;4.48;81.63;97683.44;5067598;28;20505;-79
2022/02/02 08:33:12;;;;;;;15.03;4.07;;;5.90;83.30;;;4.50;80.68;97684.94;5049796;28;20463;-74
2022/02/02 08:35:43;;;;;;;13.10;4.50;;;5.90;83.10;;;4.48;80.91;97681.59;5050136;28;20534;-74
2022/02/02 08:38:16;;;;;;;16.53;4.53;;;5.90;82.60;;;4.50;80.99;97682.25;5049959;28;20764;-75
2022/02/02 08:40:49;;;;;;;14.03;4.20;;;5.90;82.40;;;4.44;80.39;97682.16;5034346;28;20514;-74
2022/02/02 08:43:22;;;;;;;10.87;2.87;;;5.90;82.10;;;4.50;79.31;97684.94;5034651;28;20411;-77
2022/02/02 08:45:50;;;;;;;10.70;4.13;;;5.90;81.70;;;4.50;79.54;97689.44;5035367;28;20450;-73
2022/02/02 08:48:22;;;;;;;12.57;4.03;;;5.90;81.70;;;4.50;79.31;97682.25;5049700;28;20532;-75
2022/02/02 08:50:53;;;;;;;10.00;3.57;;;5.90;81.30;;;4.52;79.18;97690.91;5034310;28;20965;-73
2022/02/02 08:53:33;;;;;;;9.33;3.60;;;5.90;81.20;;;4.54;78.99;97694.25;5050822;28;20450;-73
2022/02/02 08:56:17;;;;;;;16.50;4.07;;;5.90;80.90;;;4.58;78.63;97685.84;5034229;28;20446;-73
2022/02/02 08:58:46;;;;;;;17.70;3.53;;;6.00;80.60;;;4.57;77.84;97697.56;5049950;28;20453;-74
2022/02/02 09:01:20;;;;;;;8.53;2.57;;;6.00;80.30;;;4.60;77.36;97694.50;5033822;28;20891;-75
2022/02/02 09:06:32;;;;;;;10.40;2.87;;;6.00;79.90;;;4.71;78.01;97703.94;5050494;28;20454;-72
2022/02/02 09:09:09;;;;;;;8.70;2.70;;;6.10;80.00;;;4.69;78.02;97714.81;5034974;28;20466;-71
2022/02/02 09:20:09;;;;;;;5.40;2.63;;;6.30;79.70;;;4.88;77.55;97713.41;5050274;28;20498;-72
2022/02/02 09:25:24;;;;;;;15.53;3.47;;;6.40;80.20;;;4.89;77.25;97717.75;5049150;28;20442;-72
2022/02/02 09:36:13;;;;;;;5.73;2.77;;;6.60;79.50;;;5.34;77.03;97752.47;5049034;28;20459;-73
2022/02/02 09:38:40;;;;;;;7.47;3.37;;;6.70;79.60;;;5.16;77.28;97749.38;5049542;28;20442;-73
2022/02/02 09:43:57;;;;;;;8.33;2.80;;;6.50;80.40;;;5.21;77.58;97753.16;5030014;28;20447;-73
2022/02/02 09:46:29;;;;;;;7.70;3.10;;;6.60;80.30;;;5.27;77.61;97750.75;5033512;28;20454;-74
2022/02/02 09:49:00;;;;;;;5.60;2.60;;;6.60;80.40;;;5.20;78.58;97762.22;5033252;28;20605;-72
2022/02/02 09:51:31;;;;;;;11.63;4.50;;;6.60;80.40;;;5.28;78.39;97757.75;5048442;28;20932;-73
2022/02/02 09:54:03;;;;;;;9.60;3.20;;;6.70;80.70;;;5.35;78.25;97775.56;5049912;28;20223;-75
2022/02/02 09:57:00;;;;;;;8.57;3.60;;;6.70;80.70;;;5.24;78.95;97773.41;5034190;28;20442;-74
2022/02/02 09:59:46;;;;;;;8.97;3.00;;;6.70;80.80;;;5.03;79.07;97777.66;5033841;28;20497;-73
2022/02/02 10:02:32;;;;;;;9.03;3.23;;;6.50;80.60;;;5.02;78.88;97786.72;5049479;28;20478;-74
2022/02/02 10:05:06;;;;;;;6.17;2.60;;;6.50;80.90;;;4.84;78.88;97800.44;5033996;28;20467;-72
2022/02/02 10:13:45;;;;;;;7.47;2.37;;;6.40;79.20;;;5.47;76.60;97804.56;5032789;28;20465;-75
2022/02/02 10:16:21;;;;;;;8.20;2.10;;;6.70;79.60;;;5.41;75.36;97783.91;5052412;28;21014;-74
2022/02/02 10:18:49;;;;;;;6.40;2.70;;;6.90;79.10;;;5.35;76.58;97813.09;5053923;28;20530;-77
2022/02/02 10:21:31;;;;;;;9.67;2.87;;;6.80;79.10;;;5.38;76.22;97796.66;5052100;28;20438;-76
2022/02/02 10:23:58;;;;;;;9.47;2.77;;;6.80;79.00;;;5.45;76.25;97802.06;5059166;28;20938;-74
2022/02/02 10:26:25;;;;;;;14.80;3.17;;;6.80;79.10;;;5.64;74.66;97816.72;5055437;28;20491;-76
2022/02/02 10:28:53;;;;;;;11.10;3.10;;;7.00;78.30;;;5.59;74.15;97824.53;5055744;28;20486;-76
2022/02/02 10:31:21;;;;;;;10.57;3.03;;;7.00;77.60;;;5.29;73.91;97781.69;5056094;28;20482;-75
2022/02/02 10:33:48;;;;;;;9.70;3.30;;;6.90;77.80;;;5.54;73.19;97829.63;5059938;28;20503;-77
2022/02/02 10:36:20;;;;;;;10.63;2.80;;;6.90;77.10;;;5.46;71.93;97819.84;5059225;28;20453;-77
2022/02/02 10:39:07;;;;;;;7.70;2.20;;;6.90;76.30;;;5.73;71.12;97825.50;5053370;28;20442;-76
2022/02/02 10:41:45;;;;;;;7.03;2.57;;;7.10;75.90;;;5.93;69.41;97820.34;5056379;28;20473;-76
2022/02/02 10:44:20;;;;;;;9.60;3.03;;;7.30;74.10;;;6.07;67.72;97825.88;5056660;28;20438;-77
2022/02/02 10:46:57;;;;;;;7.00;2.07;;;7.40;72.70;;;6.05;67.70;97817.19;5056636;28;20521;-76
2022/02/02 10:49:32;;;;;;;9.47;2.37;;;7.40;72.50;;;6.14;67.95;97821.44;5057165;28;21020;-77
2022/02/02 10:52:06;;;;;;;6.37;3.03;;;7.50;72.60;;;6.02;67.25;97812.22;5055950;28;20483;-75
2022/02/02 10:54:39;;;;;;;8.53;2.00;;;7.50;71.70;;;6.00;67.97;97833.81;5055296;28;20470;-75
2022/02/02 10:57:15;;;;;;;7.00;2.13;;;7.40;71.80;;;5.95;68.08;97828.22;5056870;28;20462;-78
2022/02/02 11:07:59;;;;;;;6.10;1.83;;;7.10;72.00;;;5.73;67.95;97841.56;5065429;28;20515;-79
2022/02/02 11:10:29;;;;;;;13.73;1.90;;;7.10;71.50;;;5.70;68.25;97835.78;5060172;28;20850;-79
2022/02/02 11:12:58;;;;;;;7.33;2.93;;;7.10;71.60;;;5.86;67.80;97840.91;5056541;28;20458;-80
2022/02/02 11:15:47;;;;;;;4.93;1.70;;;7.20;71.30;;;6.02;66.14;97828.31;5055618;28;20534;-81
2022/02/02 11:18:21;;;;;;;5.43;2.00;;;7.30;69.80;;;6.09;65.48;97834.56;5055393;28;20446;-79
2022/02/02 11:20:48;;;;;;;3.40;2.00;;;7.40;69.70;;;5.79;65.29;97773.81;5055904;28;20830;-81
2022/02/02 11:23:16;;;;;;;18.43;7.53;;;7.50;69.20;;;6.35;65.81;97833.97;5055347;28;20430;-79
2022/02/02 11:25:51;;;;;;;8.27;3.50;;;7.70;69.80;;;6.49;65.42;97843.00;5056016;28;20449;-79
2022/02/02 11:28:30;;;;;;;7.73;2.27;;;7.80;69.50;;;6.39;63.67;97837.13;5055859;28;20472;-80
2022/02/02 11:31:08;;;;;;;3.17;1.43;;;7.80;68.10;;;6.41;63.78;97843.13;5054186;28;20438;-79
2022/02/02 11:33:56;;;;;;;4.77;1.70;;;7.80;67.80;;;6.35;62.86;97857.31;5055707;28;20478;-82
2022/02/02 11:36:29;;;;;;;7.10;1.70;;;7.70;66.70;;;6.30;64.16;97841.78;5055739;28;20790;-79
2022/02/02 11:38:59;;;;;;;3.17;1.10;;;7.70;67.60;;;6.08;63.59;97865.09;5056195;28;20520;-79
2022/02/02 11:41:48;;;;;;;4.20;1.07;;;7.50;66.70;;;5.93;63.54;97867.81;5056113;28;20445;-81
2022/02/02 11:44:25;;;;;;;3.27;1.87;;;7.40;66.30;;;5.99;64.59;97863.50;5055684;28;20434;-79
2022/02/02 11:47:05;;;;;;;3.90;1.03;;;7.40;67.10;;;5.98;63.63;97832.34;5055613;28;20441;-79
2022/02/02 11:49:55;;;;;;;8.73;2.30;;;7.40;66.60;;;6.30;63.55;97865.13;5055391;28;20981;-81
2022/02/02 11:52:54;;;;;;;3.97;1.30;;;7.60;66.80;;;6.39;63.40;97885.41;5055717;28;20751;-81
2022/02/02 11:55:45;;;;;;;5.67;2.17;;;7.70;66.90;;;6.09;63.23;97866.75;5053902;28;20438;-78
2022/02/02 11:58:27;;;;;;;6.57;1.40;;;7.50;65.50;;;6.06;63.45;97856.41;5055280;28;20437;-80
2022/02/02 12:01:04;;;;;;;6.47;1.60;;;7.50;66.00;;;6.26;63.13;97882.59;5054141;28;20487;-80
2022/02/02 12:03:56;;;;;;;5.53;1.60;;;7.60;65.90;;;6.39;62.21;97877.38;5055002;28;20491;-80
2022/02/02 12:06:42;;;;;;;5.03;1.57;;;7.70;65.20;;;6.47;61.57;97879.94;5070860;28;20934;-80
2022/02/02 12:09:17;;;;;;;7.90;1.60;;;7.80;64.80;;;6.82;61.45;97891.78;5054992;28;20466;-80
2022/02/02 12:57:03;;;;;;;6.07;1.40;;;7.90;62.70;;;6.38;62.08;97929.38;5054317;28;20931;-75
2022/02/02 12:59:53;;;;;;;4.93;1.47;;;7.80;63.50;;;6.52;61.56;97935.72;5054040;28;20442;-76
2022/02/02 13:02:22;;;;;;;4.73;1.13;;;7.90;63.60;;;6.74;61.55;97931.16;5047447;28;20454;-77
2022/02/02 13:04:55;;;;;;;3.60;1.50;;;8.00;63.60;;;6.66;60.60;97920.56;5056708;28;20490;-77
2022/02/02 13:07:27;;;;;;;5.00;1.60;;;8.10;63.00;;;6.55;61.04;97932.66;5059681;28;20441;-71
2022/02/02 13:09:55;;;;;;;11.53;1.70;;;8.00;62.70;;;6.52;61.83;97949.13;5037538;28;21375;-74
2022/02/02 13:12:39;;;;;;;4.57;1.73;;;7.90;63.40;;;6.47;61.31;97922.03;5043891;28;20481;-76
2022/02/02 13:18:07;;;;;;;4.00;1.00;;;7.90;63.00;;;6.64;60.13;97965.59;5060882;28;20459;-76
2022/02/02 13:20:47;;;;;;;3.50;1.50;;;8.00;62.00;;;6.68;59.26;97966.03;5032903;28;20949;-74
2022/02/02 13:23:21;;;;;;;5.67;1.50;;;8.00;61.30;;;6.49;59.17;97957.56;5037855;28;20730;-75
2022/02/02 13:25:54;;;;;;;6.40;1.40;;;7.90;61.00;;;6.38;59.18;97966.97;5032529;28;20527;-76
2022/02/02 13:28:47;;;;;;;11.70;1.33;;;7.80;60.80;;;6.30;59.79;97954.47;5038263;28;20478;-74
2022/02/02 13:31:38;;;;;;;2.50;1.10;;;7.70;61.00;;;6.33;59.01;97961.34;5045200;28;20460;-76
2022/02/02 13:34:30;;;;;;;10.20;1.73;;;7.70;60.40;;;6.28;58.35;97977.16;5061439;28;20534;-75
2022/02/02 13:37:49;;;;;;;4.87;1.50;;;7.60;59.70;;;6.22;59.30;97974.22;5049766;28;20452;-75
2022/02/02 13:46:17;;;;;;;5.63;1.67;;;7.70;59.40;;;6.50;57.13;97997.66;5049576;28;20445;-76
2022/02/02 13:48:55;;;;;;;4.33;1.17;;;7.80;59.00;;;6.41;57.13;97977.31;5039162;28;20473;-75
2022/02/02 13:51:38;;;;;;;5.20;1.67;;;7.80;58.10;;;6.51;57.34;97991.25;5046683;28;20462;-74
2022/02/02 13:54:30;;;;;;;4.67;1.53;;;7.90;58.50;;;6.58;57.27;98003.91;5066258;28;20537;-75
2022/02/02 14:11:05;;;;;;;3.80;1.37;;;7.50;60.50;;;6.02;61.86;98021.44;5015842;28;20492;-76
2022/02/02 14:32:46;;;;;;;5.80;2.40;;;7.40;63.50;;;6.14;63.54;98041.41;5036538;28;20530;-79
2022/02/02 14:35:17;;;;;;;4.07;1.63;;;7.50;63.70;;;6.05;64.14;98064.78;5064702;28;20933;-79
2022/02/02 14:37:44;;;;;;;2.97;1.37;;;7.40;63.60;;;5.90;63.19;98050.50;5073789;28;20434;-80
2022/02/02 14:40:20;;;;;;;6.47;2.43;;;7.30;62.90;;;5.98;62.50;98063.84;5066865;28;20456;-78
2022/02/02 14:42:51;;;;;;;2.00;0.90;;;7.30;62.80;;;5.96;62.87;98055.97;5063364;28;20446;-75
2022/02/02 14:45:22;;;;;;;4.50;1.77;;;7.30;63.10;;;6.11;63.68;98073.94;5057182;28;20461;-76
2022/02/02 14:47:53;;;;;;;4.93;1.67;;;7.40;63.40;;;6.05;63.70;98069.34;5050572;28;20458;-77
2022/02/02 14:50:27;;;;;;;4.20;1.33;;;7.40;63.50;;;5.42;63.13;97973.13;5037993;28;20469;-78
2022/02/02 14:53:07;;;;;;;2.93;1.40;;;7.50;63.50;;;6.16;63.00;98076.06;5040146;28;20453;-75
2022/02/02 15:29:06;;;;;;;4.37;1.40;;;6.90;62.10;;;5.57;62.91;98137.47;5007849;28;20459;-81
2022/02/02 15:31:35;;;;;;;7.80;1.97;;;6.90;61.80;;;5.64;62.48;98153.66;4995563;28;20506;-82
2022/02/02 15:34:03;;;;;;;6.07;2.17;;;7.00;61.90;;;5.51;62.13;98143.53;5025629;28;20469;-80
2022/02/02 15:39:15;;;;;;;5.40;1.90;;;6.90;61.30;;;5.56;61.95;98154.56;5010213;28;20881;-83
2022/02/02 15:41:57;;;;;;;2.83;1.60;;;6.90;61.60;;;5.47;62.93;98156.47;5056499;28;20507;-83
2022/02/02 15:58:21;;;;;;;3.23;1.47;;;6.40;62.00;;;4.76;64.00;98152.03;5054694;28;20544;-80
2022/02/02 16:03:46;;;;;;;5.13;1.87;;;6.20;62.50;;;4.66;64.64;98162.97;5053784;28;20811;-81
2022/02/02 16:06:17;;;;;;;5.40;1.57;;;6.10;62.80;;;4.57;65.35;98152.47;5055922;28;20503;-80
2022/02/02 16:08:46;;;;;;;7.60;3.53;;;6.00;62.70;;;4.56;64.99;98158.81;5055312;28;20473;-80
2022/02/02 16:11:21;;;;;;;3.43;1.43;;;6.00;62.90;;;4.46;65.96;98154.50;5053838;28;20768;-77
2022/02/02 16:13:51;;;;;;;6.20;2.30;;;5.90;63.20;;;4.40;66.11;98176.59;5055415;28;20909;-79
2022/02/02 16:16:41;;;;;;;3.20;1.90;;;5.80;63.70;;;4.32;67.29;98176.63;5055232;28;20510;-81
2022/02/02 16:19:16;;;;;;;3.43;1.50;;;5.80;64.20;;;4.24;67.51;98180.16;5055476;28;20446;-79
2022/02/02 16:24:47;;;;;;;2.73;1.43;;;5.60;65.20;;;4.07;69.13;98185.53;5053209;28;20446;-81
2022/02/02 16:33:19;;;;;;;3.37;1.70;;;5.30;66.80;;;3.79;71.15;98195.75;5054745;28;20434;-80
2022/02/02 16:36:01;;;;;;;3.20;1.70;;;5.30;67.50;;;3.64;72.22;98196.44;5053075;28;20436;-78
2022/02/02 16:38:32;;;;;;;7.37;1.80;;;5.20;68.50;;;3.62;72.31;98206.44;5055592;28;20438;-77
2022/02/02 16:41:03;;;;;;;6.27;2.30;;;5.10;69.10;;;3.62;73.20;98219.81;5055024;28;20434;-77
2022/02/02 16:43:31;;;;;;;5.80;2.30;;;5.10;69.80;;;3.58;73.35;98215.81;5054236;28;20438;-79
2022/02/02 16:45:58;;;;;;;6.03;1.70;;;5.10;70.30;;;3.66;72.75;98233.69;5053226;28;20444;-78
2022/02/02 16:48:26;;;;;;;3.10;2.20;;;5.10;70.60;;;3.65;73.07;98234.69;5054501;28;20435;-78
2022/02/02 16:50:56;;;;;;;9.43;3.40;;;5.10;70.90;;;3.61;73.71;98233.31;5053685;28;20454;-79
2022/02/02 16:53:30;;;;;;;8.50;4.20;;;5.10;71.20;;;3.59;73.56;98230.84;5054504;28;20457;-79
2022/02/02 16:56:04;;;;;;;5.60;2.20;;;5.10;71.40;;;3.50;73.96;98232.66;5053953;28;20465;-78